Flight Track Log - Related Links

Times and Time Zones

All times are in EDT time to prevent confusion due to time zone crossing. See the GJS6221 flight status page for this flight to view local times or setup timezone preferences in your user account.

Time Position Orientation Groundspeed Altitude Reporting Facility
EDT Latitude Longitude Course Direction KTS MPH feet Rate Location/Type
Fri 07:21:04 AM 45.4333 -73.7500 189° South 150 173 1,400  Level Montreal Center
Fri 07:22:04 AM 45.4000 -73.7667 199° South 180 207 3,300 1,900 Climbing Montreal Center
Fri 07:23:04 AM 45.3333 -73.8167 208° Southwest 250 288 5,200 2,350 Climbing Montreal Center
Fri 07:24:04 AM 45.2667 -73.8333 190° South 290 334 8,000 2,900 Climbing Montreal Center
Fri 07:25:00 AM 44.9382 -74.0833 180° South  Level FlightAware Approximate
Fri 07:25:04 AM 45.1833 -73.8000 164° South 290 334 11,000  Level Montreal Center
Fri 07:26:00 AM 44.8487 -74.1029 189° South  Level FlightAware Approximate
Fri 07:26:04 AM 45.0833 -73.8167 187° South 340 391 12,400  Level Montreal Center
Fri 07:27:04 AM 44.9833 -73.8167 180° South 360 414 14,500 2,100 Climbing Montreal Center
Fri 07:28:04 AM 44.8833 -73.8167 180° South 370 426 16,600 1,850 Climbing Montreal Center
Fri 07:29:04 AM 44.7833 -73.8000 173° South 390 449 18,200 1,750 Climbing Montreal Center
Fri 07:30:04 AM 44.6667 -73.8000 180° South 400 460 20,100 1,900 Climbing Montreal Center
Fri 07:31:04 AM 44.5500 -73.8000 180° South 410 472 22,000 1,426 Climbing Montreal Center
Fri 07:32:06 AM 44.4719 -73.8189 190° South 412 474 23,000 787 Climbing Boston Center
Fri 07:33:06 AM 44.3239 -73.8183 180° South 432 497 23,600 650 Climbing Boston Center
Fri 07:34:06 AM 44.1822 -73.8181 180° South 459 528 24,300 650 Climbing Boston Center
Fri 07:35:06 AM 44.0489 -73.8178 180° South 471 542 24,900 550 Climbing Boston Center
Fri 07:36:06 AM 43.9406 -73.8183 180° South 484 557 25,400 650 Climbing Boston Center
Fri 07:37:06 AM 43.7883 -73.8119 178° South 489 563 26,200 900 Climbing Boston Center
Fri 07:38:06 AM 43.6508 -73.8117 180° South 495 570 27,200 -50 Climbing Boston Center
Fri 07:39:06 AM 43.5008 -73.8111 180° South 494 568 26,100 -1,000 Descending Boston Center
Fri 07:40:06 AM 43.3822 -73.8083 179° South 494 568 25,200 -950 Descending Boston Center
Fri 07:41:06 AM 43.2528 -73.8111 181° South 483 556 24,200 -1,100 Descending Boston Center
Fri 07:42:06 AM 43.1300 -73.8086 179° South 467 537 23,000 -1,250 Descending Boston Center
Fri 07:43:06 AM 43.0111 -73.8086 180° South 443 510 21,700 -1,000 Descending Boston Center
Fri 07:44:06 AM 42.8944 -73.8089 180° South 430 495 21,000 -350 Descending Boston Center
Fri 07:45:06 AM 42.7819 -73.8036 178° South 419 482 21,000  Level Boston Center
Fri 07:46:06 AM 42.6614 -73.7869 174° South 419 482 21,000  Level Boston Center
Fri 07:47:06 AM 42.5447 -73.7675 173° South 424 488 21,000  Level Boston Center
Fri 07:48:06 AM 42.4242 -73.7422 171° South 429 494 21,000 -200 Level Boston Center
Fri 07:49:06 AM 42.3078 -73.7175 171° South 429 494 20,600 -850 Descending Boston Center
Fri 07:50:06 AM 42.1933 -73.6872 169° South 422 486 19,300 -1,300 Descending Boston Center
Fri 07:51:06 AM 42.0792 -73.6681 173° South 422 486 18,000 -850 Descending Boston Center
Fri 07:52:06 AM 41.9683 -73.6797 184° South 410 472 17,600 -1,050 Descending Boston Center
Fri 07:53:06 AM 41.8536 -73.7000 188° South 393 452 15,900 -1,550 Descending Boston Center
Fri 07:54:06 AM 41.7617 -73.7175 188° South 380 437 14,500 -1,500 Descending Boston Center
Fri 07:55:06 AM 41.6572 -73.7378 188° South 356 410 12,900 -1,462 Descending Boston Center
Fri 07:56:05 AM 41.5833 -73.7500 187° South 305 351 11,600 -1,261 Descending New York TRACON
Fri 07:57:05 AM 41.5000 -73.7667 189° South 288 331 10,400 -1,143 Descending New York TRACON
Fri 07:58:11 AM 41.4000 -73.7833 187° South 301 346 9,200 -750 Descending New York TRACON
Fri 07:59:05 AM 41.3333 -73.7833 180° South 292 336 8,900 -684 Descending New York TRACON
Fri 08:00:05 AM 41.2667 -73.7333 151° Southeast 298 343 7,900 -1,000 Descending New York TRACON
Fri 08:01:05 AM 41.2000 -73.6667 143° Southeast 282 325 6,900 -1,000 Descending New York TRACON
Fri 08:01:59 AM 41.1333 -73.6500 169° South 273 314 6,000 -1,000 Descending New York TRACON
Fri 08:02:59 AM 41.0667 -73.6500 180° South 248 285 5,000 -947 Descending New York TRACON
Fri 08:03:53 AM 41.0167 -73.6833 207° Southwest 197 227 4,200 -850 Descending New York TRACON
Fri 08:04:59 AM 40.9667 -73.7167 207° Southwest 182 209 3,300 -524 Descending New York TRACON
Fri 08:05:59 AM 40.9167 -73.7667 217° Southwest 182 209 3,100 -474 Descending New York TRACON
Fri 08:06:53 AM 40.8833 -73.7833 201° Southwest 158 182 2,400 -750 Descending New York TRACON
Fri 08:07:59 AM 40.8500 -73.8167 217° Southwest 129 148 1,600 -714 Descending New York TRACON
Fri 08:08:59 AM 40.8167 -73.8500 217° Southwest 135 155 900 -700 Descending New York TRACON
Fri 08:09:59 AM 40.7833 -73.8667 201° Southwest 129 148 200 -700 Descending New York TRACON
Fri 08:11:00 AM 40.7772 -73.8726 180° South  Level Estimated
Fri 08:18:00 AM 40.7772 -73.8726 180° South  Level Estimated
Fri 08:19:00 AM 40.7772 -73.8726 180° South  Level Estimated

Login

Don't have an account? Register now (free) for customized features, flight alerts, and more!